Time;durP1;ratioP1;P1;durP2;ratioP2;P2;SDS_P1;SDS_P2;PMS_P1;PMS_P2;Temp;Humidity;BMP_temperature;BMP_pressure;BME280_temperature;BME280_humidity;BME280_pressure;Samples;Min_cycle;Max_cycle;Signal;HPM_P1;HPM_P2
2023/04/27 00:01:29;;;;;;;9.23;1.97;;;27.00;99.90;;;;;;5072390;28;20218;-71
2023/04/27 00:03:57;;;;;;;9.07;2.53;;;27.30;99.90;;;;;;5070925;28;20278;-72
2023/04/27 00:06:26;;;;;;;7.43;1.63;;;27.60;99.90;;;;;;5071764;28;20195;-71
2023/04/27 00:08:54;;;;;;;13.13;2.27;;;27.90;99.90;;;;;;5072244;28;20183;-72
2023/04/27 00:11:21;;;;;;;7.00;1.37;;;27.80;99.90;;;;;;5071616;28;20227;-73
2023/04/27 00:13:49;;;;;;;5.23;1.60;;;27.70;99.90;;;;;;5071351;28;20879;-72
2023/04/27 00:16:17;;;;;;;5.13;1.87;;;27.60;99.90;;;;;;5072027;28;20195;-72
2023/04/27 00:18:45;;;;;;;8.10;2.80;;;27.90;99.90;;;;;;5071993;28;20180;-72
2023/04/27 00:21:13;;;;;;;8.80;2.70;;;28.10;99.90;;;;;;5071708;28;20316;-70
2023/04/27 00:23:41;;;;;;;8.90;2.50;;;27.30;99.90;;;;;;5072165;28;20183;-70
2023/04/27 00:26:08;;;;;;;6.07;1.80;;;27.30;99.90;;;;;;5071917;28;20651;-71
2023/04/27 00:28:36;;;;;;;9.53;2.10;;;26.90;99.90;;;;;;5071594;28;20179;-70
2023/04/27 00:31:04;;;;;;;12.53;2.10;;;27.00;99.90;;;;;;5070636;28;20187;-70
2023/04/27 00:33:32;;;;;;;5.17;1.50;;;26.90;99.90;;;;;;5071817;28;20208;-72
2023/04/27 00:36:01;;;;;;;10.77;1.77;;;27.00;99.90;;;;;;5071517;28;20175;-71
2023/04/27 00:38:30;;;;;;;10.87;2.20;;;27.70;99.90;;;;;;5071606;28;20176;-70
2023/04/27 00:41:08;;;;;;;5.93;1.53;;;28.00;99.90;;;;;;5071856;28;20179;-71
2023/04/27 00:43:46;;;;;;;6.00;1.30;;;27.50;99.90;;;;;;5072765;28;20550;-71
2023/04/27 00:46:14;;;;;;;6.90;1.40;;;27.20;99.90;;;;;;5072259;28;20218;-72
2023/04/27 00:48:42;;;;;;;8.33;1.47;;;27.60;99.90;;;;;;5072299;28;20176;-70
2023/04/27 00:51:10;;;;;;;4.87;1.23;;;27.40;99.90;;;;;;5071208;28;20587;-70
2023/04/27 00:53:38;;;;;;;6.27;1.50;;;28.10;99.90;;;;;;5071749;28;20683;-70
2023/04/27 00:56:07;;;;;;;5.87;1.73;;;28.20;99.90;;;;;;5071670;28;20184;-69
2023/04/27 00:58:35;;;;;;;6.23;1.73;;;28.20;99.90;;;;;;5071264;28;20172;-68
2023/04/27 01:01:04;;;;;;;5.50;1.70;;;28.20;99.90;;;;;;5071615;28;20539;-71
2023/04/27 01:03:32;;;;;;;4.20;1.40;;;27.70;99.90;;;;;;5072229;28;20176;-70
2023/04/27 01:06:00;;;;;;;5.57;1.33;;;28.20;99.90;;;;;;5071591;28;20512;-71
2023/04/27 01:08:30;;;;;;;6.77;1.27;;;28.40;99.90;;;;;;5071646;28;20592;-72
2023/04/27 01:10:57;;;;;;;6.50;1.60;;;28.40;99.90;;;;;;5071573;28;20184;-71
2023/04/27 01:13:25;;;;;;;3.67;0.97;;;28.50;99.90;;;;;;5070973;28;20231;-71
2023/04/27 01:15:53;;;;;;;2.33;0.80;;;28.30;99.90;;;;;;5070344;28;20278;-70
2023/04/27 01:18:22;;;;;;;4.50;0.80;;;28.40;99.90;;;;;;5071160;28;20228;-71
2023/04/27 01:20:49;;;;;;;4.23;1.03;;;28.50;99.90;;;;;;5071265;28;20184;-71
2023/04/27 01:23:17;;;;;;;2.93;1.00;;;29.00;99.90;;;;;;5072731;28;20502;-72
2023/04/27 01:25:44;;;;;;;5.07;1.20;;;28.80;99.90;;;;;;5075271;28;20171;-71
2023/04/27 01:28:12;;;;;;;2.50;1.00;;;28.70;99.90;;;;;;5074647;28;20229;-71
2023/04/27 01:30:39;;;;;;;7.93;1.23;;;29.20;99.90;;;;;;5075034;28;20176;-71
2023/04/27 01:33:07;;;;;;;4.10;1.17;;;29.50;99.90;;;;;;5075155;28;20183;-71
2023/04/27 01:35:34;;;;;;;3.40;0.90;;;28.70;99.90;;;;;;5074576;28;20212;-71
2023/04/27 01:38:02;;;;;;;6.03;0.83;;;28.50;99.90;;;;;;5074827;28;20210;-71
2023/04/27 01:40:36;;;;;;;5.47;1.00;;;28.20;99.90;;;;;;5074540;28;20243;-70
2023/04/27 01:43:04;;;;;;;2.77;1.00;;;28.60;99.90;;;;;;5071027;28;20240;-71
2023/04/27 01:45:31;;;;;;;4.67;1.17;;;28.90;99.90;;;;;;5074829;28;20271;-71
2023/04/27 01:47:59;;;;;;;8.30;1.30;;;28.60;99.90;;;;;;5074745;28;20180;-70
2023/04/27 01:50:26;;;;;;;3.97;0.80;;;28.20;99.90;;;;;;5074317;28;20192;-70
2023/04/27 01:52:54;;;;;;;4.40;1.07;;;28.00;99.90;;;;;;5074692;28;20191;-71
2023/04/27 01:55:21;;;;;;;4.93;0.90;;;28.10;99.90;;;;;;5074690;28;20215;-70
2023/04/27 01:57:49;;;;;;;4.83;1.30;;;28.40;99.90;;;;;;5074001;28;20202;-69
2023/04/27 02:00:17;;;;;;;3.47;1.17;;;28.90;99.90;;;;;;5074663;28;20180;-72
2023/04/27 02:02:44;;;;;;;2.70;0.87;;;29.00;99.90;;;;;;5074558;28;20176;-72
2023/04/27 02:05:12;;;;;;;4.03;1.10;;;28.80;99.90;;;;;;5074220;28;20640;-73
2023/04/27 02:07:39;;;;;;;3.53;1.03;;;28.60;99.90;;;;;;5074501;28;20206;-70
2023/04/27 02:10:07;;;;;;;3.73;1.10;;;28.20;99.90;;;;;;5074520;28;20179;-72
2023/04/27 02:12:35;;;;;;;2.40;0.80;;;28.10;99.90;;;;;;5073825;28;20589;-71
2023/04/27 02:15:02;;;;;;;2.27;0.90;;;28.10;99.90;;;;;;5073988;28;20306;-71
2023/04/27 02:17:30;;;;;;;6.40;1.33;;;28.60;99.90;;;;;;5074137;28;20180;-73
2023/04/27 02:19:57;;;;;;;4.27;0.87;;;28.90;99.90;;;;;;5073971;28;20274;-71
2023/04/27 02:22:25;;;;;;;3.23;0.70;;;28.90;98.90;;;;;;5074295;28;20215;-72
2023/04/27 02:24:53;;;;;;;3.57;0.80;;;29.20;96.70;;;;;;5072912;28;20180;-71
2023/04/27 02:27:20;;;;;;;5.60;1.20;;;28.40;97.80;;;;;;5073612;28;20673;-71
2023/04/27 02:29:47;;;;;;;4.93;0.90;;;28.50;99.90;;;;;;5074113;28;20191;-70
2023/04/27 02:32:15;;;;;;;4.03;0.90;;;28.90;98.70;;;;;;5074004;28;20180;-71
2023/04/27 02:34:42;;;;;;;6.27;1.37;;;29.10;97.80;;;;;;5072597;28;20208;-71
2023/04/27 02:37:10;;;;;;;3.80;1.10;;;29.40;95.30;;;;;;5073624;28;20313;-71
2023/04/27 02:39:37;;;;;;;4.70;0.93;;;29.30;95.70;;;;;;5073670;28;20180;-70
2023/04/27 02:42:05;;;;;;;5.73;0.93;;;29.10;91.80;;;;;;5073302;28;20168;-70
2023/04/27 02:44:32;;;;;;;4.03;0.80;;;28.60;96.20;;;;;;5073581;28;20184;-70
2023/04/27 02:46:59;;;;;;;7.07;1.43;;;28.50;97.40;;;;;;5073711;28;20172;-70
2023/04/27 02:49:27;;;;;;;6.20;1.43;;;28.90;94.30;;;;;;5072853;28;20192;-71
2023/04/27 02:51:55;;;;;;;3.77;1.03;;;28.70;94.90;;;;;;5073513;28;20183;-71
2023/04/27 02:54:24;;;;;;;1.87;0.80;;;28.50;95.50;;;;;;5073417;28;20244;-72
2023/04/27 02:56:52;;;;;;;6.40;1.10;;;28.30;97.10;;;;;;5073150;28;20224;-69
2023/04/27 02:59:19;;;;;;;3.30;1.10;;;28.20;98.50;;;;;;5073157;28;20268;-70
2023/04/27 03:01:47;;;;;;;2.77;0.93;;;28.70;99.60;;;;;;5073395;28;20176;-71
2023/04/27 03:04:15;;;;;;;6.17;1.10;;;28.80;99.60;;;;;;5072820;28;20172;-70
2023/04/27 03:06:42;;;;;;;3.30;1.10;;;29.10;95.70;;;;;;5073141;28;20671;-70
2023/04/27 03:09:10;;;;;;;5.30;0.73;;;29.00;95.80;;;;;;5073127;28;20226;-71
2023/04/27 03:11:38;;;;;;;2.30;0.67;;;28.80;92.10;;;;;;5072734;28;20190;-71
2023/04/27 03:14:05;;;;;;;2.97;0.80;;;28.40;91.70;;;;;;5072797;28;20250;-71
2023/04/27 03:16:33;;;;;;;2.83;0.77;;;28.20;91.80;;;;;;5073051;28;20191;-71
2023/04/27 03:19:01;;;;;;;2.90;0.77;;;28.10;93.30;;;;;;5072288;28;20943;-70
2023/04/27 03:21:28;;;;;;;3.43;0.90;;;28.00;96.40;;;;;;5072675;28;20180;-70
2023/04/27 03:23:56;;;;;;;3.67;1.00;;;28.00;95.40;;;;;;5072893;28;20262;-70
2023/04/27 03:26:23;;;;;;;3.00;0.60;;;28.70;95.90;;;;;;5072426;28;20172;-71
2023/04/27 03:28:50;;;;;;;3.07;0.73;;;28.50;95.40;;;;;;5072726;28;20176;-70
2023/04/27 03:31:18;;;;;;;4.83;0.70;;;29.00;95.70;;;;;;5072650;28;20184;-70
2023/04/27 03:33:45;;;;;;;3.10;1.00;;;28.90;94.20;;;;;;5072047;28;20311;-70
2023/04/27 03:36:12;;;;;;;1.70;0.50;;;28.20;95.70;;;;;;5071296;28;20180;-71
2023/04/27 03:38:40;;;;;;;5.13;0.60;;;28.00;95.80;;;;;;5072492;28;20179;-71
2023/04/27 03:41:07;;;;;;;3.00;1.00;;;28.30;94.00;;;;;;5072070;28;20184;-73
2023/04/27 03:43:35;;;;;;;1.97;0.80;;;28.80;93.00;;;;;;5072459;28;20603;-70
2023/04/27 03:46:03;;;;;;;3.23;0.70;;;28.20;93.30;;;;;;5072095;28;20186;-71
2023/04/27 03:48:30;;;;;;;5.10;0.80;;;28.20;92.70;;;;;;5072007;28;20297;-71
2023/04/27 03:50:59;;;;;;;4.50;1.10;;;28.30;76.40;;;;;;5072308;28;20172;-71
2023/04/27 03:53:27;;;;;;;1.93;0.73;;;28.10;80.10;;;;;;5072177;28;20655;-71
2023/04/27 03:55:54;;;;;;;4.07;0.80;;;28.40;81.00;;;;;;5071797;28;20176;-71
2023/04/27 03:58:21;;;;;;;1.80;0.70;;;28.40;79.40;;;;;;5070659;28;20180;-71
2023/04/27 04:00:49;;;;;;;2.87;0.77;;;28.50;85.60;;;;;;5071944;28;20184;-70
2023/04/27 04:03:16;;;;;;;2.60;0.73;;;28.40;80.80;;;;;;5070292;28;20225;-72
2023/04/27 04:05:45;;;;;;;1.90;0.73;;;27.80;81.00;;;;;;5071941;28;20180;-71
2023/04/27 04:08:13;;;;;;;4.37;0.70;;;28.30;83.20;;;;;;5071996;28;20179;-70
2023/04/27 04:10:41;;;;;;;1.70;0.73;;;27.80;63.80;;;;;;5070729;28;20210;-70
2023/04/27 04:13:08;;;;;;;1.03;0.70;;;27.60;64.00;;;;;;5071029;28;20257;-70
2023/04/27 04:15:39;;;;;;;1.80;0.83;;;27.20;69.60;;;;;;5071672;28;20266;-71
2023/04/27 04:18:07;;;;;;;1.87;0.63;;;27.40;80.00;;;;;;5071369;28;20203;-70
2023/04/27 04:20:35;;;;;;;2.30;0.60;;;27.50;84.80;;;;;;5071821;28;20264;-70
2023/04/27 04:23:02;;;;;;;1.67;0.60;;;27.80;80.00;;;;;;5071872;28;20275;-70
2023/04/27 04:25:30;;;;;;;3.03;0.70;;;27.70;60.70;;;;;;5071038;28;20278;-70
2023/04/27 04:27:58;;;;;;;4.67;0.63;;;27.80;63.10;;;;;;5071079;28;20187;-71
2023/04/27 04:30:26;;;;;;;1.73;0.60;;;28.00;65.40;;;;;;5071313;28;20187;-71
2023/04/27 04:32:54;;;;;;;6.07;0.60;;;27.70;71.60;;;;;;5071176;28;20617;-69
2023/04/27 04:35:21;;;;;;;1.93;0.70;;;27.40;66.80;;;;;;5071310;28;20215;-70
2023/04/27 04:37:48;;;;;;;0.83;0.50;;;27.40;71.50;;;;;;5069765;28;20609;-70
2023/04/27 04:40:16;;;;;;;3.53;0.87;;;27.30;67.90;;;;;;5070529;28;20266;-71
2023/04/27 04:42:43;;;;;;;5.40;0.77;;;27.00;73.20;;;;;;5071191;28;20173;-71
2023/04/27 04:45:11;;;;;;;3.77;0.63;;;27.20;75.20;;;;;;5071312;28;20253;-68
2023/04/27 04:47:39;;;;;;;5.40;1.00;;;27.30;77.30;;;;;;5070606;28;20175;-70
2023/04/27 04:50:08;;;;;;;4.33;0.90;;;27.30;77.30;;;;;;5071141;28;20179;-70
2023/04/27 04:52:36;;;;;;;1.10;0.60;;;27.00;81.10;;;;;;5071209;28;20183;-69
2023/04/27 04:55:04;;;;;;;3.63;0.50;;;27.20;86.30;;;;;;5069936;28;20215;-69
2023/04/27 04:57:31;;;;;;;3.37;0.80;;;27.10;89.90;;;;;;5070665;28;20185;-71
2023/04/27 05:00:00;;;;;;;2.60;1.00;;;27.20;90.00;;;;;;5075153;28;20184;-70
2023/04/27 05:02:28;;;;;;;4.47;1.37;;;27.00;91.50;;;;;;5074453;28;20214;-69
2023/04/27 05:04:56;;;;;;;3.67;0.80;;;27.10;91.70;;;;;;5072368;28;20184;-68
2023/04/27 05:07:23;;;;;;;1.93;0.70;;;27.40;93.30;;;;;;5074968;28;20264;-72
2023/04/27 05:09:51;;;;;;;1.63;0.70;;;27.40;91.40;;;;;;5074880;28;20188;-70
2023/04/27 05:12:19;;;;;;;2.43;0.70;;;27.20;94.20;;;;;;5074855;28;20285;-71
2023/04/27 05:14:47;;;;;;;1.83;0.60;;;26.90;95.70;;;;;;5074814;28;20214;-71
2023/04/27 05:17:15;;;;;;;2.20;0.80;;;26.80;94.60;;;;;;5072878;28;20175;-71
2023/04/27 05:19:42;;;;;;;2.63;0.80;;;26.70;96.00;;;;;;5074710;28;20195;-73
2023/04/27 05:22:10;;;;;;;4.03;0.77;;;26.80;97.20;;;;;;5074944;28;20267;-70
2023/04/27 05:24:37;;;;;;;4.67;0.70;;;26.60;96.10;;;;;;5074622;28;20211;-72
2023/04/27 05:27:05;;;;;;;1.40;0.60;;;26.40;97.50;;;;;;5074891;28;20217;-71
2023/04/27 05:29:33;;;;;;;4.03;0.80;;;26.10;96.90;;;;;;5075043;28;20179;-72
2023/04/27 05:32:00;;;;;;;1.20;0.53;;;26.00;99.60;;;;;;5074121;28;20664;-71
2023/04/27 05:34:27;;;;;;;4.10;0.70;;;25.80;99.10;;;;;;5074686;28;20711;-71
2023/04/27 05:36:55;;;;;;;2.10;0.50;;;25.90;99.90;;;;;;5073268;28;20584;-71
2023/04/27 05:39:22;;;;;;;2.20;0.53;;;25.90;99.90;;;;;;5074415;28;20176;-72
2023/04/27 05:41:50;;;;;;;4.73;0.53;;;26.20;99.40;;;;;;5074850;28;20658;-72
2023/04/27 05:44:17;;;;;;;4.07;0.93;;;26.20;99.30;;;;;;5075156;28;20263;-71
2023/04/27 05:46:45;;;;;;;5.07;0.80;;;26.20;99.90;;;;;;5074662;28;20197;-68
2023/04/27 05:49:12;;;;;;;3.07;0.70;;;26.20;99.90;;;;;;5074343;28;20258;-70
2023/04/27 05:51:40;;;;;;;2.07;0.77;;;26.10;99.90;;;;;;5074587;28;20178;-72
2023/04/27 05:54:08;;;;;;;4.23;0.73;;;26.00;99.90;;;;;;5074318;28;20207;-71
2023/04/27 05:56:36;;;;;;;4.07;0.90;;;25.80;99.90;;;;;;5074071;28;20180;-71
2023/04/27 05:59:04;;;;;;;7.77;0.90;;;25.50;99.90;;;;;;5074291;28;20672;-71
2023/04/27 06:01:31;;;;;;;3.20;0.70;;;25.40;99.90;;;;;;5074245;28;20259;-70
2023/04/27 06:04:00;;;;;;;5.37;1.00;;;25.40;99.90;;;;;;5074288;28;20178;-71
2023/04/27 06:06:30;;;;;;;4.07;1.20;;;25.20;99.90;;;;;;5074138;28;20274;-71
2023/04/27 06:08:58;;;;;;;2.43;1.00;;;24.90;99.90;;;;;;5073792;28;20553;-71
2023/04/27 06:11:25;;;;;;;3.47;1.30;;;24.80;99.90;;;;;;5072208;28;20179;-72
2023/04/27 06:13:53;;;;;;;8.60;2.13;;;24.50;99.90;;;;;;5073802;28;20219;-71
2023/04/27 06:16:20;;;;;;;2.00;0.63;;;24.40;99.90;;;;;;5073768;28;20179;-69
2023/04/27 06:18:49;;;;;;;3.50;0.70;;;24.40;99.90;;;;;;5073865;28;20172;-72
2023/04/27 06:21:17;;;;;;;3.07;0.70;;;24.50;99.90;;;;;;5074362;28;20266;-72
2023/04/27 06:23:44;;;;;;;2.43;0.87;;;24.50;99.90;;;;;;5073820;28;20172;-71
2023/04/27 06:26:12;;;;;;;6.27;0.77;;;24.40;99.90;;;;;;5073169;28;20627;-70
2023/04/27 06:28:39;;;;;;;3.60;0.87;;;24.30;99.90;;;;;;5073816;28;20172;-72
2023/04/27 06:31:06;;;;;;;6.87;0.90;;;24.20;99.90;;;;;;5073757;28;20269;-71
2023/04/27 06:33:34;;;;;;;1.87;0.60;;;24.20;99.90;;;;;;5073400;28;20183;-71
2023/04/27 06:36:02;;;;;;;4.73;1.13;;;24.20;99.90;;;;;;5073489;28;20186;-71
2023/04/27 06:38:29;;;;;;;5.53;1.50;;;24.10;99.90;;;;;;5073471;28;20187;-70
2023/04/27 06:40:58;;;;;;;7.27;1.30;;;24.00;99.90;;;;;;5072174;28;20199;-70
2023/04/27 06:43:25;;;;;;;4.00;1.37;;;23.80;99.90;;;;;;5073538;28;20323;-71
2023/04/27 06:45:53;;;;;;;4.37;1.20;;;23.70;99.90;;;;;;5073262;28;20245;-71
2023/04/27 06:48:20;;;;;;;5.87;0.80;;;23.60;99.90;;;;;;5073360;28;20296;-71
2023/04/27 06:50:48;;;;;;;5.37;1.33;;;23.50;99.90;;;;;;5073395;28;20186;-71
2023/04/27 06:53:16;;;;;;;4.43;1.00;;;23.40;99.90;;;;;;5074009;28;20579;-72
2023/04/27 06:55:43;;;;;;;5.60;1.30;;;23.30;99.90;;;;;;5072741;28;20578;-72
2023/04/27 06:58:11;;;;;;;6.20;1.20;;;23.20;99.90;;;;;;5073255;28;20536;-72
2023/04/27 07:00:39;;;;;;;11.43;1.30;;;23.10;99.90;;;;;;5073198;28;20252;-72
2023/04/27 07:03:06;;;;;;;5.33;1.70;;;23.00;99.90;;;;;;5072857;28;20704;-72
2023/04/27 07:05:34;;;;;;;3.73;1.20;;;22.90;99.90;;;;;;5073180;28;20701;-70
2023/04/27 07:08:02;;;;;;;6.50;1.17;;;22.80;99.90;;;;;;5073048;28;20345;-72
2023/04/27 07:10:29;;;;;;;7.20;1.40;;;22.70;99.90;;;;;;5072512;28;20170;-72
2023/04/27 07:12:57;;;;;;;7.67;1.37;;;22.60;99.90;;;;;;5072977;28;20287;-70
2023/04/27 07:15:24;;;;;;;6.87;2.40;;;22.50;99.90;;;;;;5072797;28;20235;-71
2023/04/27 07:17:55;;;;;;;6.00;1.60;;;22.50;99.90;;;;;;5071095;28;20187;-70
2023/04/27 07:20:23;;;;;;;5.47;1.30;;;22.40;99.90;;;;;;5072774;28;20552;-71
2023/04/27 07:22:50;;;;;;;7.67;1.10;;;22.30;99.90;;;;;;5070484;28;20662;-70
2023/04/27 07:25:18;;;;;;;5.80;1.30;;;22.20;99.90;;;;;;5072392;28;20543;-71
2023/04/27 07:27:46;;;;;;;13.00;1.67;;;22.20;99.90;;;;;;5071360;28;20179;-71
2023/04/27 07:30:16;;;;;;;5.90;1.30;;;22.10;99.90;;;;;;5072608;28;20223;-70
2023/04/27 07:32:44;;;;;;;11.00;1.73;;;22.10;99.90;;;;;;5072456;28;20177;-72
2023/04/27 07:35:12;;;;;;;7.67;1.60;;;22.00;99.90;;;;;;5072466;28;20707;-70
2023/04/27 07:37:40;;;;;;;6.50;1.30;;;21.90;99.90;;;;;;5072528;28;20230;-72
2023/04/27 07:40:15;;;;;;;8.60;1.33;;;21.90;99.90;;;;;;5072235;28;20629;-71
2023/04/27 07:42:43;;;;;;;5.87;1.77;;;21.80;99.90;;;;;;5071252;28;20179;-71
2023/04/27 07:45:10;;;;;;;7.27;1.00;;;21.70;99.90;;;;;;5072348;28;20229;-70
2023/04/27 07:47:38;;;;;;;9.67;1.70;;;21.70;99.90;;;;;;5072447;28;20229;-69
2023/04/27 07:50:07;;;;;;;8.53;1.30;;;21.70;99.90;;;;;;5072146;28;20192;-72
2023/04/27 07:52:35;;;;;;;8.13;1.27;;;21.60;99.90;;;;;;5072001;28;20190;-70
2023/04/27 07:55:03;;;;;;;10.23;1.80;;;21.50;99.90;;;;;;5072209;28;20272;-70
2023/04/27 07:57:30;;;;;;;5.90;1.53;;;21.50;99.90;;;;;;5072241;28;20187;-69
2023/04/27 07:59:58;;;;;;;6.60;1.93;;;21.40;99.90;;;;;;5070775;28;20651;-69
2023/04/27 08:02:30;;;;;;;8.10;1.30;;;21.30;99.90;;;;;;5071969;28;20187;-72
2023/04/27 08:04:57;;;;;;;6.77;1.50;;;21.30;99.90;;;;;;5072001;28;20188;-71
2023/04/27 08:07:25;;;;;;;10.10;1.93;;;21.20;99.90;;;;;;5071812;28;20182;-71
2023/04/27 08:09:52;;;;;;;6.67;1.47;;;21.20;99.90;;;;;;5071909;28;20191;-71
2023/04/27 08:12:20;;;;;;;4.47;1.50;;;21.20;99.90;;;;;;5072005;28;20289;-71
2023/04/27 08:14:47;;;;;;;6.53;1.40;;;21.10;99.90;;;;;;5070202;28;20621;-69
2023/04/27 08:17:17;;;;;;;5.47;1.40;;;21.10;99.90;;;;;;5071815;28;20215;-71
2023/04/27 08:19:44;;;;;;;5.87;1.40;;;21.00;99.90;;;;;;5071956;28;20211;-72
2023/04/27 08:22:11;;;;;;;11.07;1.70;;;21.00;99.90;;;;;;5071603;28;20554;-68
2023/04/27 08:24:39;;;;;;;9.30;1.60;;;20.90;99.90;;;;;;5071749;28;20190;-70
2023/04/27 08:27:07;;;;;;;9.90;2.00;;;20.80;99.90;;;;;;5071845;28;20214;-70
2023/04/27 08:29:35;;;;;;;6.33;1.57;;;20.80;99.90;;;;;;5071545;28;20211;-71
2023/04/27 08:32:04;;;;;;;7.63;1.50;;;20.80;99.90;;;;;;5070304;28;20191;-71
2023/04/27 08:34:31;;;;;;;6.70;1.67;;;20.70;99.90;;;;;;5071005;28;20208;-70
2023/04/27 08:36:59;;;;;;;9.87;1.70;;;20.60;99.90;;;;;;5071330;28;20179;-70
2023/04/27 08:39:26;;;;;;;4.70;1.47;;;20.60;99.90;;;;;;5071476;28;20259;-70
2023/04/27 08:41:54;;;;;;;7.60;1.73;;;20.60;99.90;;;;;;5071540;28;20183;-70
2023/04/27 08:44:21;;;;;;;7.70;1.70;;;20.60;99.90;;;;;;5071165;28;20644;-69
2023/04/27 08:46:50;;;;;;;7.17;1.93;;;20.50;99.90;;;;;;5071566;28;20172;-72
2023/04/27 08:49:17;;;;;;;11.30;2.10;;;20.40;99.90;;;;;;5071615;28;20689;-70
2023/04/27 08:51:45;;;;;;;9.00;1.87;;;20.30;99.90;;;;;;5071378;28;20176;-69
2023/04/27 08:54:12;;;;;;;10.03;1.87;;;20.40;99.90;;;;;;5051377;28;20212;-70
2023/04/27 08:56:39;;;;;;;10.33;1.60;;;20.40;99.90;;;;;;5071311;28;20187;-70
2023/04/27 08:59:14;;;;;;;9.07;1.80;;;20.40;99.90;;;;;;5071273;28;20187;-70
2023/04/27 09:01:49;;;;;;;9.17;1.97;;;20.40;99.90;;;;;;5071664;28;20181;-71
2023/04/27 09:04:18;;;;;;;6.90;1.63;;;20.40;99.90;;;;;;5071252;28;20187;-69
2023/04/27 09:06:47;;;;;;;6.30;1.60;;;20.20;99.90;;;;;;5071245;28;20578;-71
2023/04/27 09:09:25;;;;;;;4.57;1.20;;;20.20;99.90;;;;;;5071585;28;20252;-71
2023/04/27 09:11:52;;;;;;;9.07;2.03;;;20.10;99.90;;;;;;5071255;28;20194;-71
2023/04/27 09:14:22;;;;;;;8.90;2.13;;;20.20;99.90;;;;;;5070920;28;21029;-68
2023/04/27 09:16:58;;;;;;;7.03;2.10;;;20.20;99.90;;;;;;5051339;28;20556;-71
2023/04/27 09:19:29;;;;;;;7.93;1.50;;;20.20;99.90;;;;;;5051314;28;20238;-71
2023/04/27 09:22:10;;;;;;;4.53;1.43;;;20.30;99.90;;;;;;5050954;28;20183;-71
2023/04/27 09:24:38;;;;;;;10.27;2.03;;;20.10;99.90;;;;;;5053835;28;20180;-71
2023/04/27 09:27:07;;;;;;;12.17;1.57;;;20.10;99.90;;;;;;5071146;28;20192;-70
2023/04/27 09:29:38;;;;;;;10.90;1.60;;;20.00;99.90;;;;;;5071000;28;20175;-71
2023/04/27 09:32:19;;;;;;;11.27;1.80;;;20.00;99.90;;;;;;5070907;28;20240;-72
2023/04/27 09:34:47;;;;;;;13.63;1.83;;;20.00;99.90;;;;;;5071002;28;20214;-71
2023/04/27 09:37:14;;;;;;;10.07;1.93;;;20.00;99.90;;;;;;5070805;28;20180;-71
2023/04/27 09:39:42;;;;;;;6.77;1.30;;;19.90;99.90;;;;;;5071043;28;20188;-69
2023/04/27 09:42:12;;;;;;;7.13;1.50;;;20.00;99.90;;;;;;5071252;28;20265;-71
2023/04/27 09:44:39;;;;;;;5.27;1.90;;;20.00;99.90;;;;;;5071130;28;20596;-71
2023/04/27 09:47:08;;;;;;;11.30;1.80;;;20.00;99.90;;;;;;5080911;28;20526;-70
2023/04/27 09:49:35;;;;;;;10.10;1.43;;;20.10;99.90;;;;;;5078486;28;20179;-71
2023/04/27 09:52:03;;;;;;;13.27;1.87;;;20.00;99.90;;;;;;5074459;28;20183;-72
2023/04/27 09:54:33;;;;;;;18.73;2.50;;;19.90;99.90;;;;;;5074474;28;20565;-69
2023/04/27 09:57:26;;;;;;;10.70;1.77;;;19.90;99.90;;;;;;5074202;28;20637;-73
2023/04/27 10:00:16;;;;;;;8.07;1.70;;;19.80;99.90;;;;;;5074342;28;20179;-71
2023/04/27 10:03:06;;;;;;;8.90;2.00;;;19.70;99.90;;;;;;5071169;28;20645;-68
2023/04/27 10:05:58;;;;;;;11.47;1.93;;;19.80;99.90;;;;;;5074331;28;20216;-68
2023/04/27 10:08:26;;;;;;;10.90;1.90;;;19.80;99.90;;;;;;5074293;28;20175;-70
2023/04/27 10:10:53;;;;;;;8.40;1.70;;;19.70;99.90;;;;;;5074408;28;20591;-68
2023/04/27 10:13:25;;;;;;;7.17;2.10;;;19.70;99.90;;;;;;5073632;28;20242;-71
2023/04/27 10:15:53;;;;;;;8.93;1.90;;;19.80;99.90;;;;;;5073890;28;20291;-71
2023/04/27 10:18:30;;;;;;;10.90;2.27;;;19.70;99.90;;;;;;5073896;28;20205;-71
2023/04/27 10:21:08;;;;;;;11.33;2.73;;;19.70;99.90;;;;;;5073885;28;20189;-71
2023/04/27 10:23:47;;;;;;;9.33;2.30;;;19.70;99.90;;;;;;5058696;28;20180;-72
2023/04/27 10:26:23;;;;;;;12.47;1.93;;;19.60;99.90;;;;;;5074065;28;20237;-72
2023/04/27 10:29:09;;;;;;;12.13;2.07;;;19.70;99.90;;;;;;5073745;28;20217;-72
2023/04/27 10:31:44;;;;;;;8.37;2.00;;;19.70;99.90;;;;;;5073468;28;20205;-69
2023/04/27 10:34:16;;;;;;;8.70;1.50;;;19.70;99.90;;;;;;5073872;28;20227;-70
2023/04/27 10:36:43;;;;;;;10.33;1.87;;;19.60;99.90;;;;;;5072128;28;20630;-70
2023/04/27 10:39:21;;;;;;;10.63;1.77;;;19.70;99.90;;;;;;5073748;28;20190;-70
2023/04/27 10:41:54;;;;;;;10.70;2.07;;;19.60;99.90;;;;;;5073288;28;20186;-70
2023/04/27 10:44:27;;;;;;;4.93;1.57;;;19.60;99.90;;;;;;5073448;28;20184;-69
2023/04/27 10:46:56;;;;;;;8.37;1.83;;;19.60;99.90;;;;;;5072993;28;20175;-69
2023/04/27 10:49:23;;;;;;;11.33;1.87;;;19.50;99.90;;;;;;5073164;28;20627;-71
2023/04/27 10:51:51;;;;;;;11.50;2.10;;;19.50;99.90;;;;;;5072291;28;20247;-71
2023/04/27 10:54:19;;;;;;;9.73;1.73;;;19.40;99.90;;;;;;5073131;28;20211;-71
2023/04/27 10:56:46;;;;;;;9.33;2.23;;;19.40;99.90;;;;;;5072565;28;20177;-71
2023/04/27 10:59:14;;;;;;;7.13;1.70;;;19.50;99.90;;;;;;5071709;28;20191;-70
2023/04/27 11:01:41;;;;;;;6.30;1.50;;;19.40;99.90;;;;;;5072686;28;20286;-69
2023/04/27 11:04:09;;;;;;;7.83;1.73;;;19.40;99.90;;;;;;5072729;28;20172;-69
2023/04/27 11:06:44;;;;;;;8.63;1.80;;;19.40;99.90;;;;;;5071873;28;20270;-68
2023/04/27 11:09:13;;;;;;;14.00;1.63;;;19.20;99.90;;;;;;5072779;28;20182;-69
2023/04/27 11:11:45;;;;;;;8.60;1.50;;;19.10;99.90;;;;;;5072519;28;20188;-70
2023/04/27 11:14:20;;;;;;;6.33;1.93;;;18.90;99.90;;;;;;5071848;28;20238;-71
2023/04/27 11:16:48;;;;;;;12.37;2.20;;;18.80;99.90;;;;;;5072582;28;20552;-69
2023/04/27 11:19:15;;;;;;;7.63;2.10;;;18.70;99.90;;;;;;5072615;28;20186;-70
2023/04/27 11:21:43;;;;;;;17.27;2.10;;;18.60;99.90;;;;;;5071931;28;20188;-70
2023/04/27 11:24:11;;;;;;;8.63;1.90;;;18.60;99.90;;;;;;5072400;28;20183;-70
2023/04/27 11:26:38;;;;;;;9.00;2.20;;;18.50;99.90;;;;;;5072116;28;20186;-70
2023/04/27 11:29:14;;;;;;;8.00;1.90;;;18.40;99.90;;;;;;5072088;28;20339;-71
2023/04/27 11:31:49;;;;;;;14.10;2.13;;;18.20;99.90;;;;;;5071819;28;20650;-70
2023/04/27 11:34:25;;;;;;;7.93;2.50;;;18.10;99.90;;;;;;5072033;28;20211;-69
2023/04/27 11:37:02;;;;;;;9.20;1.70;;;18.10;99.90;;;;;;5071175;28;20197;-69
2023/04/27 11:39:35;;;;;;;4.17;1.90;;;18.00;99.90;;;;;;5071944;28;20204;-71
2023/04/27 11:42:42;;;;;;;8.63;2.27;;;17.90;99.90;;;;;;5071965;28;20178;-71
2023/04/27 11:45:12;;;;;;;9.50;1.80;;;17.80;99.90;;;;;;5049707;28;20250;-70
2023/04/27 11:47:46;;;;;;;8.23;1.93;;;17.70;99.90;;;;;;5049403;28;20184;-71
2023/04/27 11:50:14;;;;;;;6.40;2.00;;;17.60;99.90;;;;;;5061763;28;20188;-71
2023/04/27 11:52:41;;;;;;;7.50;1.90;;;17.60;99.90;;;;;;5071590;28;20267;-71
2023/04/27 11:55:14;;;;;;;3.07;1.63;;;17.60;99.90;;;;;;5070228;28;20226;-69
2023/04/27 11:57:42;;;;;;;5.30;2.30;;;17.50;99.90;;;;;;5071452;28;20175;-70
2023/04/27 12:00:10;;;;;;;4.80;2.20;;;17.40;99.90;;;;;;5071933;28;20199;-70
2023/04/27 12:02:38;;;;;;;6.97;1.90;;;17.40;99.90;;;;;;5071628;28;20236;-70
2023/04/27 12:05:06;;;;;;;6.57;1.80;;;17.30;99.90;;;;;;5071387;28;20199;-69
2023/04/27 12:07:34;;;;;;;3.70;1.70;;;17.20;99.90;;;;;;5070972;28;20179;-69
2023/04/27 12:10:01;;;;;;;4.83;1.73;;;17.10;99.90;;;;;;5071971;28;20703;-71
2023/04/27 12:12:30;;;;;;;7.73;2.30;;;17.10;99.90;;;;;;5070854;28;21126;-70
2023/04/27 12:14:57;;;;;;;14.07;4.57;;;17.00;99.90;;;;;;5071808;28;20768;-70
2023/04/27 12:17:25;;;;;;;13.33;4.50;;;17.00;99.90;;;;;;5071851;28;20175;-70
2023/04/27 12:19:52;;;;;;;12.10;3.70;;;17.00;99.90;;;;;;5070809;28;20675;-71
2023/04/27 12:22:20;;;;;;;14.53;4.10;;;17.10;99.90;;;;;;5071521;28;20174;-71
2023/04/27 12:24:47;;;;;;;13.57;4.50;;;17.10;99.90;;;;;;5070986;28;20184;-71
2023/04/27 12:27:15;;;;;;;11.47;4.07;;;17.00;99.90;;;;;;5071356;28;20638;-70
2023/04/27 12:29:43;;;;;;;10.80;4.03;;;16.90;99.90;;;;;;5071422;28;20202;-67
2023/04/27 12:32:10;;;;;;;11.40;3.80;;;16.90;99.90;;;;;;5071608;28;20175;-71
2023/04/27 12:34:38;;;;;;;10.40;4.13;;;16.80;99.90;;;;;;5070758;28;20251;-71
2023/04/27 12:37:09;;;;;;;14.70;3.40;;;16.70;99.90;;;;;;5071124;28;20187;-72
2023/04/27 12:39:39;;;;;;;10.67;3.63;;;16.60;99.90;;;;;;5071322;28;20218;-71
2023/04/27 12:42:07;;;;;;;11.50;2.90;;;16.60;99.90;;;;;;5069950;28;20195;-69
2023/04/27 12:44:35;;;;;;;11.33;3.37;;;16.50;99.90;;;;;;5071673;28;20307;-71
2023/04/27 12:47:03;;;;;;;15.83;3.20;;;16.50;99.90;;;;;;5070823;28;20186;-70
2023/04/27 12:49:30;;;;;;;10.13;2.60;;;16.50;99.90;;;;;;5069637;28;20189;-72
2023/04/27 12:51:58;;;;;;;8.37;2.83;;;16.50;99.90;;;;;;5070325;28;20647;-71
2023/04/27 12:54:25;;;;;;;6.77;2.30;;;16.40;99.90;;;;;;5068112;28;20215;-71